Time;durP1;ratioP1;P1;durP2;ratioP2;P2;SDS_P1;SDS_P2;PMS_P1;PMS_P2;Temp;Humidity;BMP_temperature;BMP_pressure;BME280_temperature;BME280_humidity;BME280_pressure;Samples;Min_cycle;Max_cycle;Signal;HPM_P1;HPM_P2
2023/06/17 00:01:48;;;;;;;11.70;7.10;;;18.10;99.90;;;;;;5072916;28;20175;-73
2023/06/17 00:04:15;;;;;;;14.67;7.17;;;18.50;99.90;;;;;;5073224;28;20522;-70
2023/06/17 00:06:43;;;;;;;12.33;7.40;;;18.30;99.90;;;;;;5072668;28;20207;-73
2023/06/17 00:09:10;;;;;;;13.63;8.37;;;18.60;99.90;;;;;;5072763;28;20180;-70
2023/06/17 00:11:39;;;;;;;15.40;8.43;;;18.50;99.90;;;;;;5073144;28;20552;-75
2023/06/17 00:14:07;;;;;;;15.47;8.17;;;18.10;99.90;;;;;;5064640;28;20251;-73
2023/06/17 00:16:36;;;;;;;10.57;7.27;;;18.10;99.90;;;;;;5073297;28;20179;-71
2023/06/17 00:19:04;;;;;;;16.37;8.13;;;18.20;99.90;;;;;;5073022;28;20632;-72
2023/06/17 00:21:33;;;;;;;16.40;9.07;;;18.70;99.90;;;;;;5075611;28;20226;-72
2023/06/17 00:24:00;;;;;;;18.07;9.57;;;18.80;99.90;;;;;;5072860;28;20184;-69
2023/06/17 00:26:27;;;;;;;15.30;8.23;;;18.80;99.90;;;;;;5072543;28;20184;-73
2023/06/17 00:28:55;;;;;;;16.90;8.60;;;18.80;99.90;;;;;;5073005;28;20186;-72
2023/06/17 00:31:22;;;;;;;18.80;9.60;;;19.20;99.90;;;;;;5072005;28;20177;-70
2023/06/17 00:33:49;;;;;;;14.17;9.10;;;19.30;99.90;;;;;;5071350;28;20180;-70
2023/06/17 00:36:17;;;;;;;11.23;7.70;;;19.40;99.90;;;;;;5070198;28;20164;-70
2023/06/17 00:38:44;;;;;;;12.97;7.93;;;19.50;99.90;;;;;;5071149;28;20215;-70
2023/06/17 00:41:12;;;;;;;17.87;8.87;;;19.70;99.90;;;;;;5071395;28;20259;-69
2023/06/17 00:43:39;;;;;;;14.40;7.97;;;20.00;99.90;;;;;;5071678;28;20675;-67
2023/06/17 00:46:06;;;;;;;14.83;7.37;;;20.30;99.90;;;;;;5071144;28;20205;-70
2023/06/17 00:48:34;;;;;;;17.67;7.77;;;20.60;99.90;;;;;;5070938;28;20769;-68
2023/06/17 00:51:01;;;;;;;16.57;7.50;;;20.90;99.90;;;;;;5071304;28;20185;-70
2023/06/17 00:53:30;;;;;;;14.47;7.07;;;20.90;99.90;;;;;;5072112;28;20553;-67
2023/06/17 00:55:59;;;;;;;17.83;7.63;;;20.80;99.90;;;;;;5072110;28;20548;-69
2023/06/17 01:01:48;;;;;;;11.40;6.47;;;20.40;99.90;;;;;;5072351;28;20187;-68
2023/06/17 01:04:15;;;;;;;9.97;6.03;;;21.10;99.90;;;;;;5054776;28;20216;-67
2023/06/17 01:07:16;;;;;;;11.07;7.13;;;21.70;99.90;;;;;;5072660;28;20202;-69
2023/06/17 01:09:50;;;;;;;9.80;6.50;;;21.70;97.40;;;;;;5073071;28;20201;-69
2023/06/17 01:12:17;;;;;;;11.47;6.73;;;21.10;97.40;;;;;;5072779;28;20178;-68
2023/06/17 01:14:49;;;;;;;11.20;5.00;;;21.20;97.50;;;;;;5072782;28;20241;-68
2023/06/17 01:17:18;;;;;;;10.93;5.03;;;21.30;96.10;;;;;;5073039;28;20629;-70
2023/06/17 01:19:48;;;;;;;11.23;6.20;;;21.50;92.70;;;;;;5072526;28;20586;-69
2023/06/17 01:22:17;;;;;;;9.37;5.50;;;21.50;93.30;;;;;;5072677;28;20274;-67
2023/06/17 01:24:47;;;;;;;13.10;6.17;;;21.50;95.70;;;;;;5072710;28;20184;-70
2023/06/17 01:27:15;;;;;;;11.13;6.43;;;21.50;93.50;;;;;;5072476;28;20614;-70
2023/06/17 01:29:43;;;;;;;11.20;5.97;;;21.40;92.70;;;;;;5072721;28;20648;-68
2023/06/17 01:32:10;;;;;;;11.27;5.80;;;20.90;94.60;;;;;;5072475;28;20199;-68
2023/06/17 01:35:01;;;;;;;10.60;5.30;;;21.20;95.00;;;;;;5072702;28;20186;-67
2023/06/17 01:37:38;;;;;;;9.53;5.53;;;21.50;93.00;;;;;;5072452;28;20618;-69
2023/06/17 01:40:10;;;;;;;8.43;5.13;;;21.90;92.80;;;;;;5072800;28;20176;-71
2023/06/17 01:42:47;;;;;;;10.70;5.20;;;22.00;86.20;;;;;;5072426;28;20503;-68
2023/06/17 01:45:16;;;;;;;14.67;6.20;;;22.40;87.20;;;;;;5072343;28;20176;-70
2023/06/17 01:47:43;;;;;;;17.27;7.20;;;22.60;83.70;;;;;;5073759;28;20211;-69
2023/06/17 01:50:11;;;;;;;11.70;5.40;;;22.90;84.10;;;;;;5076044;28;20238;-70
2023/06/17 01:52:39;;;;;;;14.07;5.27;;;23.00;77.90;;;;;;5075770;28;20234;-69
2023/06/17 01:55:06;;;;;;;11.50;5.53;;;22.80;78.40;;;;;;5067623;28;20552;-70
2023/06/17 01:57:34;;;;;;;14.53;5.80;;;22.80;81.00;;;;;;5078610;28;20391;-69
2023/06/17 02:00:01;;;;;;;11.03;4.87;;;23.10;76.50;;;;;;5076072;28;20198;-69
2023/06/17 02:02:29;;;;;;;10.13;5.00;;;22.80;68.10;;;;;;5075508;28;20202;-69
2023/06/17 02:04:57;;;;;;;13.43;4.90;;;22.40;68.00;;;;;;5075860;28;20259;-68
2023/06/17 02:07:27;;;;;;;14.30;5.00;;;22.90;72.20;;;;;;5075649;28;20195;-69
2023/06/17 02:09:54;;;;;;;12.27;5.13;;;22.60;77.60;;;;;;5075723;28;20168;-69
2023/06/17 02:12:22;;;;;;;10.30;4.27;;;23.10;68.30;;;;;;5075584;28;20176;-69
2023/06/17 02:14:49;;;;;;;8.13;3.90;;;23.40;71.30;;;;;;5075583;28;20168;-69
2023/06/17 02:17:17;;;;;;;8.63;3.37;;;23.90;61.80;;;;;;5075694;28;20533;-68
2023/06/17 02:19:44;;;;;;;5.20;2.47;;;24.40;55.10;;;;;;5075460;28;20224;-70
2023/06/17 02:22:12;;;;;;;6.73;3.10;;;24.60;50.10;;;;;;5075508;28;20178;-69
2023/06/17 02:24:39;;;;;;;7.70;2.93;;;24.00;48.10;;;;;;5075516;28;20645;-69
2023/06/17 02:27:07;;;;;;;6.70;3.13;;;23.40;51.80;;;;;;5075481;28;20204;-69
2023/06/17 02:36:18;;;;;;;6.20;2.27;;;23.40;53.60;;;;;;5074911;28;20191;-69
2023/06/17 02:38:46;;;;;;;3.77;2.13;;;24.10;46.30;;;;;;5075377;28;20216;-69
2023/06/17 02:41:14;;;;;;;4.57;2.53;;;24.20;47.10;;;;;;5075373;28;20578;-68
2023/06/17 02:43:41;;;;;;;5.23;1.97;;;24.00;44.70;;;;;;5056944;28;20180;-70
2023/06/17 02:46:09;;;;;;;6.43;2.30;;;23.50;42.90;;;;;;5075152;28;20176;-69
2023/06/17 02:48:36;;;;;;;5.80;2.43;;;23.40;44.60;;;;;;5056934;28;20220;-68
2023/06/17 02:51:04;;;;;;;4.57;2.20;;;23.70;43.60;;;;;;5074974;28;20176;-69
2023/06/17 02:53:31;;;;;;;6.80;2.63;;;23.90;43.70;;;;;;5074689;28;20188;-69
2023/06/17 02:55:59;;;;;;;9.40;2.73;;;23.60;41.90;;;;;;5074986;28;20172;-68
2023/06/17 02:58:26;;;;;;;5.13;2.10;;;23.70;42.20;;;;;;5074274;28;20183;-69
2023/06/17 03:04:03;;;;;;;7.57;2.40;;;24.40;38.50;;;;;;4992502;28;20240;-68
2023/06/17 03:12:40;;;;;;;4.53;2.60;;;23.40;38.30;;;;;;5074118;28;20198;-69
2023/06/17 03:15:08;;;;;;;6.80;2.43;;;23.50;40.80;;;;;;5074657;28;20184;-68
2023/06/17 03:17:37;;;;;;;6.23;2.67;;;24.00;39.80;;;;;;5074600;28;20188;-69
2023/06/17 03:20:08;;;;;;;7.43;2.67;;;24.60;39.00;;;;;;5074253;28;20720;-69
2023/06/17 03:22:36;;;;;;;12.33;3.20;;;24.90;37.40;;;;;;5074146;28;20188;-69
2023/06/17 03:25:05;;;;;;;5.70;2.87;;;24.60;37.70;;;;;;5056097;28;20176;-70
2023/06/17 03:27:33;;;;;;;7.23;2.40;;;23.40;37.40;;;;;;5074082;28;20222;-70
2023/06/17 03:30:03;;;;;;;7.60;3.13;;;23.90;37.70;;;;;;5074189;28;20180;-69
2023/06/17 03:32:31;;;;;;;6.97;2.47;;;24.20;36.70;;;;;;5073797;28;20237;-69
2023/06/17 03:34:58;;;;;;;3.43;2.03;;;23.70;36.50;;;;;;5074020;28;20226;-70
2023/06/17 03:37:26;;;;;;;6.53;3.07;;;23.40;36.40;;;;;;5074004;28;20172;-71
2023/06/17 03:39:54;;;;;;;4.00;1.80;;;23.40;36.40;;;;;;5074026;28;20168;-72
2023/06/17 03:42:22;;;;;;;2.60;1.50;;;23.50;35.40;;;;;;5073943;28;20180;-70
2023/06/17 03:44:50;;;;;;;5.40;1.77;;;23.40;34.60;;;;;;5055871;28;20175;-71
2023/06/17 03:47:18;;;;;;;2.87;1.60;;;23.20;35.60;;;;;;5073782;28;20207;-70
2023/06/17 03:49:46;;;;;;;4.47;2.20;;;23.40;34.10;;;;;;5055783;28;20553;-71
2023/06/17 03:52:13;;;;;;;1.90;1.37;;;23.20;35.40;;;;;;5073845;28;20255;-70
2023/06/17 03:54:41;;;;;;;2.73;1.63;;;22.80;34.90;;;;;;5073690;28;20164;-69
2023/06/17 03:57:10;;;;;;;2.70;1.27;;;22.90;36.20;;;;;;5073693;28;20259;-69
2023/06/17 03:59:37;;;;;;;4.80;1.20;;;23.10;33.30;;;;;;5073753;28;20644;-68
2023/06/17 04:02:05;;;;;;;1.43;1.07;;;23.10;35.20;;;;;;5073673;28;20379;-70
2023/06/17 04:04:34;;;;;;;2.60;1.37;;;23.50;34.40;;;;;;5073595;28;20537;-68
2023/06/17 04:07:02;;;;;;;2.17;1.20;;;23.50;36.10;;;;;;5073616;28;20196;-70
2023/06/17 04:09:30;;;;;;;4.03;1.47;;;23.30;35.10;;;;;;5055519;28;20275;-69
2023/06/17 04:12:02;;;;;;;2.93;1.30;;;23.60;35.70;;;;;;5073168;28;20267;-71
2023/06/17 04:14:30;;;;;;;4.80;1.73;;;23.60;35.30;;;;;;5073395;28;20202;-68
2023/06/17 04:16:59;;;;;;;6.47;2.03;;;23.30;35.40;;;;;;5073485;28;20557;-69
2023/06/17 04:19:27;;;;;;;3.10;1.30;;;22.40;35.40;;;;;;5073185;28;20219;-67
2023/06/17 04:21:54;;;;;;;3.00;1.33;;;22.20;35.90;;;;;;5055382;28;20199;-68
2023/06/17 04:24:22;;;;;;;4.27;1.60;;;22.30;36.90;;;;;;5073283;28;20651;-71
2023/06/17 04:26:54;;;;;;;2.87;1.40;;;22.20;37.40;;;;;;5073054;28;20312;-72
2023/06/17 04:29:21;;;;;;;1.53;1.30;;;22.70;40.30;;;;;;5073130;28;20282;-70
2023/06/17 04:31:49;;;;;;;2.37;1.30;;;22.90;40.00;;;;;;5073005;28;20203;-69
2023/06/17 04:34:23;;;;;;;3.53;1.70;;;23.00;37.70;;;;;;5073102;28;20180;-68
2023/06/17 04:36:56;;;;;;;6.53;1.77;;;23.40;37.80;;;;;;5073047;28;20174;-69
2023/06/17 04:39:27;;;;;;;5.87;1.93;;;23.30;37.50;;;;;;5072993;28;20181;-70
2023/06/17 04:41:56;;;;;;;4.23;1.33;;;23.30;38.50;;;;;;5073146;28;20176;-69
2023/06/17 04:44:24;;;;;;;4.00;1.23;;;22.40;38.30;;;;;;5073060;28;20217;-71
2023/06/17 04:46:53;;;;;;;2.50;1.20;;;21.90;41.10;;;;;;5054653;28;20219;-69
2023/06/17 04:49:21;;;;;;;2.83;1.30;;;22.20;41.10;;;;;;5073533;28;20259;-69
2023/06/17 04:51:48;;;;;;;4.97;1.53;;;22.50;41.50;;;;;;5072842;28;20172;-70
2023/06/17 04:54:18;;;;;;;1.93;1.20;;;22.50;40.30;;;;;;5072539;28;20214;-70
2023/06/17 04:56:48;;;;;;;2.20;1.30;;;22.40;40.20;;;;;;5072621;28;20580;-70
2023/06/17 04:59:18;;;;;;;6.57;1.53;;;22.60;40.40;;;;;;5072898;28;20176;-70
2023/06/17 05:01:46;;;;;;;4.47;1.20;;;22.30;40.00;;;;;;5072805;28;20266;-67
2023/06/17 05:04:13;;;;;;;2.20;1.10;;;22.40;43.20;;;;;;5072904;28;20172;-71
2023/06/17 05:06:44;;;;;;;2.53;1.07;;;22.80;42.30;;;;;;5073165;28;20175;-71
2023/06/17 05:09:11;;;;;;;2.73;1.10;;;23.10;38.60;;;;;;5054756;28;20227;-72
2023/06/17 05:11:40;;;;;;;3.07;0.90;;;23.10;38.00;;;;;;5072761;28;20194;-68
2023/06/17 05:14:09;;;;;;;3.23;0.80;;;22.80;38.20;;;;;;5054594;28;20274;-70
2023/06/17 05:16:37;;;;;;;1.20;0.80;;;22.60;39.00;;;;;;5072745;28;20191;-70
2023/06/17 05:19:08;;;;;;;2.87;1.33;;;22.50;40.40;;;;;;5072465;28;20223;-69
2023/06/17 05:21:37;;;;;;;2.33;0.90;;;22.10;42.00;;;;;;5072862;28;20259;-67
2023/06/17 05:24:05;;;;;;;3.97;0.90;;;22.10;43.00;;;;;;5076408;28;20180;-70
2023/06/17 05:26:32;;;;;;;4.40;1.17;;;21.90;43.30;;;;;;5076578;28;20546;-69
2023/06/17 05:29:01;;;;;;;2.47;0.83;;;21.70;45.60;;;;;;5076649;28;20184;-70
2023/06/17 05:31:31;;;;;;;3.47;1.20;;;21.60;45.50;;;;;;5076414;28;20171;-69
2023/06/17 05:33:59;;;;;;;2.37;0.80;;;21.40;45.80;;;;;;5076588;28;20180;-69
2023/06/17 05:36:33;;;;;;;4.23;1.43;;;20.80;48.40;;;;;;5076469;28;20168;-70
2023/06/17 05:39:06;;;;;;;4.70;1.17;;;20.40;54.70;;;;;;5076205;28;20179;-69
2023/06/17 05:41:35;;;;;;;2.23;0.97;;;20.10;59.20;;;;;;5076311;28;20268;-70
2023/06/17 05:44:02;;;;;;;3.53;1.37;;;19.70;62.80;;;;;;5076490;28;20258;-67
2023/06/17 05:46:30;;;;;;;3.30;1.30;;;19.50;67.70;;;;;;5076038;28;20174;-68
2023/06/17 05:48:58;;;;;;;2.80;1.20;;;19.20;69.90;;;;;;5076106;28;20179;-71
2023/06/17 05:51:27;;;;;;;1.90;1.00;;;19.20;71.90;;;;;;5076129;28;20196;-69
2023/06/17 05:53:55;;;;;;;2.27;1.47;;;19.00;77.00;;;;;;5076147;28;20274;-68
2023/06/17 05:56:23;;;;;;;3.33;2.03;;;18.90;80.50;;;;;;5076326;28;20688;-69
2023/06/17 05:58:51;;;;;;;4.03;1.80;;;18.80;84.70;;;;;;5076419;28;20179;-70
2023/06/17 06:01:19;;;;;;;6.83;1.80;;;18.70;90.70;;;;;;5076176;28;20493;-69
2023/06/17 06:03:47;;;;;;;1.83;1.23;;;18.50;93.10;;;;;;5057373;28;20185;-70
2023/06/17 06:06:14;;;;;;;3.53;1.63;;;18.50;95.00;;;;;;5075963;28;20602;-69
2023/06/17 06:08:45;;;;;;;2.73;1.57;;;18.20;99.20;;;;;;5057808;28;20580;-70
2023/06/17 06:11:13;;;;;;;6.20;1.80;;;18.20;99.90;;;;;;5075852;28;20178;-71
2023/06/17 06:13:41;;;;;;;6.57;1.70;;;18.00;99.90;;;;;;5075670;28;20176;-71
2023/06/17 06:16:11;;;;;;;6.43;1.77;;;17.90;99.90;;;;;;5075692;28;20633;-70
2023/06/17 06:18:39;;;;;;;2.13;1.50;;;17.80;99.90;;;;;;5075603;28;20241;-70
2023/06/17 06:24:17;;;;;;;6.73;2.10;;;17.50;99.90;;;;;;4993194;28;20618;-69
2023/06/17 06:26:44;;;;;;;2.77;1.70;;;17.30;99.90;;;;;;5070521;28;20226;-69
2023/06/17 06:29:13;;;;;;;3.83;1.50;;;17.10;99.90;;;;;;5075490;28;20237;-70
2023/06/17 06:31:43;;;;;;;6.47;2.10;;;17.00;99.90;;;;;;5075596;28;20263;-68
2023/06/17 06:34:11;;;;;;;7.20;1.97;;;16.80;99.90;;;;;;5075370;28;20183;-70
2023/06/17 06:36:39;;;;;;;4.50;1.80;;;16.60;99.90;;;;;;5075292;28;20630;-71
2023/06/17 06:39:07;;;;;;;5.00;2.03;;;16.40;99.90;;;;;;5057135;28;20191;-69
2023/06/17 06:41:35;;;;;;;5.27;2.50;;;16.30;99.90;;;;;;5075028;28;20257;-68
2023/06/17 06:44:02;;;;;;;3.90;2.30;;;16.20;99.90;;;;;;5075039;28;20310;-69
2023/06/17 06:46:31;;;;;;;4.30;2.23;;;16.10;99.90;;;;;;5075144;28;20211;-69
2023/06/17 06:49:00;;;;;;;5.03;2.20;;;15.90;99.90;;;;;;5075026;28;20637;-70
2023/06/17 06:51:31;;;;;;;6.23;2.47;;;15.80;99.90;;;;;;5074998;28;20255;-68
2023/06/17 06:53:58;;;;;;;4.10;2.47;;;15.60;99.90;;;;;;5056277;28;20246;-68
2023/06/17 06:56:26;;;;;;;11.57;2.77;;;15.50;99.90;;;;;;5074958;28;20184;-66
2023/06/17 06:58:57;;;;;;;4.77;2.33;;;15.30;99.90;;;;;;5075140;28;20176;-67
2023/06/17 07:01:29;;;;;;;21.23;3.10;;;15.10;99.90;;;;;;5074707;28;20180;-69
2023/06/17 07:03:57;;;;;;;15.33;6.33;;;15.00;99.90;;;;;;5074438;28;20654;-68
2023/06/17 07:06:24;;;;;;;11.10;5.87;;;14.90;99.90;;;;;;5074610;28;20178;-69
2023/06/17 07:08:52;;;;;;;8.57;4.07;;;14.80;99.90;;;;;;5074800;28;20305;-69
2023/06/17 07:11:20;;;;;;;11.10;5.50;;;14.70;99.90;;;;;;5078525;28;20185;-69
2023/06/17 07:13:48;;;;;;;9.00;4.70;;;14.60;99.90;;;;;;5075378;28;20172;-68
2023/06/17 07:16:15;;;;;;;15.10;6.97;;;14.40;99.90;;;;;;5074106;28;20241;-68
2023/06/17 07:18:43;;;;;;;11.03;6.83;;;14.20;99.90;;;;;;5074144;28;20220;-70
2023/06/17 07:21:11;;;;;;;23.10;10.43;;;14.20;99.90;;;;;;5074245;28;20214;-68
2023/06/17 07:23:39;;;;;;;14.27;5.83;;;14.10;99.90;;;;;;5074289;28;20204;-70
2023/06/17 07:26:07;;;;;;;12.90;7.13;;;14.10;99.90;;;;;;5074314;28;20179;-69
2023/06/17 07:28:35;;;;;;;11.23;4.27;;;14.10;99.90;;;;;;5074075;28;20209;-69
2023/06/17 07:31:03;;;;;;;11.07;5.53;;;13.80;99.90;;;;;;5073962;28;20660;-70
2023/06/17 07:33:31;;;;;;;11.03;5.97;;;13.70;99.90;;;;;;5074117;28;20176;-70
2023/06/17 07:35:59;;;;;;;9.90;5.27;;;13.60;99.90;;;;;;5074371;28;20169;-70
2023/06/17 07:38:27;;;;;;;12.10;6.73;;;13.40;99.90;;;;;;5073894;28;20374;-70
2023/06/17 07:40:54;;;;;;;17.37;7.53;;;13.40;99.90;;;;;;5072742;28;20301;-71
2023/06/17 07:43:22;;;;;;;23.23;12.87;;;13.30;99.90;;;;;;5054996;28;20305;-72
2023/06/17 07:45:50;;;;;;;14.93;7.83;;;13.20;99.90;;;;;;5071996;28;20183;-71
2023/06/17 07:48:18;;;;;;;9.67;5.23;;;13.10;99.90;;;;;;5072454;28;20219;-72
2023/06/17 07:50:46;;;;;;;12.70;4.50;;;12.90;99.90;;;;;;5073224;28;20185;-70
2023/06/17 07:53:13;;;;;;;8.50;3.90;;;12.90;99.90;;;;;;5074042;28;20183;-70
2023/06/17 07:55:41;;;;;;;6.90;3.93;;;12.80;99.90;;;;;;5073778;28;20239;-75
2023/06/17 07:58:09;;;;;;;6.83;4.10;;;12.70;99.90;;;;;;5073304;28;20186;-70
2023/06/17 08:00:37;;;;;;;12.43;6.00;;;12.60;99.90;;;;;;5054654;28;20269;-70
2023/06/17 08:03:05;;;;;;;20.27;6.10;;;12.60;99.90;;;;;;5072938;28;20562;-74
2023/06/17 08:05:33;;;;;;;11.27;6.40;;;12.50;99.90;;;;;;5073013;28;20697;-70
2023/06/17 08:08:01;;;;;;;17.37;6.23;;;12.50;99.90;;;;;;5072634;28;20214;-72
2023/06/17 08:10:28;;;;;;;10.03;5.70;;;12.40;99.90;;;;;;5073174;28;20175;-72
2023/06/17 08:12:56;;;;;;;14.20;6.07;;;12.30;99.90;;;;;;5072598;28;20644;-70
2023/06/17 08:15:24;;;;;;;10.97;6.63;;;12.20;99.90;;;;;;5072801;28;20199;-75
2023/06/17 08:17:52;;;;;;;11.53;6.47;;;12.20;99.90;;;;;;5072527;28;20258;-71
2023/06/17 08:20:21;;;;;;;13.47;6.83;;;12.10;99.90;;;;;;5071448;28;20268;-71
2023/06/17 08:22:49;;;;;;;16.37;7.50;;;12.00;99.90;;;;;;5071832;28;20218;-71
2023/06/17 08:25:17;;;;;;;14.33;7.07;;;11.90;99.90;;;;;;5072398;28;20724;-71
2023/06/17 08:27:50;;;;;;;13.63;8.43;;;11.90;99.90;;;;;;5072714;28;20206;-70
2023/06/17 08:30:18;;;;;;;16.23;9.07;;;11.90;99.90;;;;;;5072589;28;20187;-70
2023/06/17 08:32:46;;;;;;;17.07;9.70;;;11.90;99.90;;;;;;5072311;28;20187;-71
2023/06/17 08:35:14;;;;;;;16.87;10.43;;;11.80;99.90;;;;;;5072791;28;20186;-71
2023/06/17 08:37:42;;;;;;;25.47;11.43;;;11.80;99.90;;;;;;5071971;28;20194;-73
2023/06/17 08:40:13;;;;;;;24.30;12.33;;;11.70;99.90;;;;;;5072602;28;20224;-73
2023/06/17 08:42:57;;;;;;;29.23;15.53;;;11.60;99.90;;;;;;5072414;28;20230;-70
2023/06/17 08:45:26;;;;;;;30.30;18.63;;;11.50;99.90;;;;;;5072482;28;20230;-72
2023/06/17 08:47:57;;;;;;;29.03;15.80;;;11.40;99.90;;;;;;5072022;28;20581;-72
2023/06/17 08:50:30;;;;;;;21.87;12.80;;;11.40;99.90;;;;;;5072400;28;20659;-72
2023/06/17 08:52:59;;;;;;;23.50;12.93;;;11.20;99.90;;;;;;5072346;28;20312;-70
2023/06/17 08:55:28;;;;;;;24.23;13.80;;;11.20;99.90;;;;;;5072291;28;20197;-71
2023/06/17 08:57:57;;;;;;;29.73;16.63;;;11.10;99.90;;;;;;5071749;28;20178;-71
2023/06/17 09:00:24;;;;;;;38.30;23.90;;;11.00;99.90;;;;;;5072919;28;20167;-71
2023/06/17 09:02:54;;;;;;;32.47;21.50;;;11.00;99.90;;;;;;5072446;28;20636;-70
2023/06/17 09:05:22;;;;;;;28.40;17.93;;;10.90;99.90;;;;;;5072019;28;20293;-72
2023/06/17 09:07:50;;;;;;;31.97;21.73;;;10.90;99.90;;;;;;5072432;28;20217;-70
2023/06/17 09:10:20;;;;;;;46.57;30.27;;;10.80;99.90;;;;;;5072276;28;20635;-72
2023/06/17 09:12:48;;;;;;;46.93;32.17;;;10.80;99.90;;;;;;5072082;28;20550;-70
2023/06/17 09:15:17;;;;;;;95.87;59.07;;;10.60;99.90;;;;;;5072378;28;20206;-72
2023/06/17 09:17:47;;;;;;;113.70;73.67;;;10.40;99.90;;;;;;5072123;28;20660;-72
2023/06/17 09:20:17;;;;;;;87.70;51.70;;;10.40;99.90;;;;;;5072103;28;20193;-70
2023/06/17 09:22:46;;;;;;;50.70;32.40;;;10.30;99.90;;;;;;5071938;28;20178;-69
2023/06/17 09:25:15;;;;;;;46.13;30.13;;;10.30;99.90;;;;;;5072184;28;20539;-70
2023/06/17 09:27:54;;;;;;;49.83;30.03;;;10.30;99.90;;;;;;5072058;28;20303;-72
2023/06/17 09:30:25;;;;;;;32.27;20.67;;;10.30;99.90;;;;;;5053750;28;20272;-71
2023/06/17 09:32:52;;;;;;;32.03;20.30;;;10.20;99.90;;;;;;5072184;28;20524;-71
2023/06/17 09:35:20;;;;;;;29.90;19.90;;;10.20;99.90;;;;;;5072323;28;20556;-70
2023/06/17 09:37:52;;;;;;;34.07;20.20;;;10.10;99.90;;;;;;5054017;28;20560;-71
2023/06/17 09:40:21;;;;;;;30.70;19.50;;;10.00;99.90;;;;;;5071997;28;20173;-70
2023/06/17 09:42:50;;;;;;;32.47;18.13;;;10.00;99.90;;;;;;5053679;28;20234;-71
2023/06/17 09:45:24;;;;;;;36.60;19.50;;;10.00;99.90;;;;;;5053778;28;20246;-73
2023/06/17 09:47:55;;;;;;;27.93;18.17;;;9.90;99.90;;;;;;5071765;28;20292;-71
2023/06/17 09:50:24;;;;;;;25.67;18.07;;;9.90;99.90;;;;;;5072064;28;20161;-72
2023/06/17 09:52:55;;;;;;;35.20;20.00;;;10.00;99.90;;;;;;5071698;28;20191;-71
2023/06/17 09:55:23;;;;;;;29.33;18.97;;;10.00;99.90;;;;;;5071768;28;20249;-70
2023/06/17 09:57:55;;;;;;;29.40;18.43;;;9.90;99.90;;;;;;5072142;28;20208;-70
2023/06/17 10:00:27;;;;;;;22.17;16.93;;;9.80;99.90;;;;;;5071728;28;20204;-70
2023/06/17 10:02:57;;;;;;;28.13;17.50;;;9.70;99.90;;;;;;5071853;28;20188;-72
2023/06/17 10:05:25;;;;;;;29.30;19.77;;;9.60;99.90;;;;;;5071876;28;20256;-70
2023/06/17 10:07:56;;;;;;;35.47;21.60;;;9.60;99.90;;;;;;5072111;28;20688;-71
2023/06/17 10:10:24;;;;;;;32.50;20.73;;;9.50;99.90;;;;;;5075561;28;20235;-72
2023/06/17 10:12:57;;;;;;;38.47;22.80;;;9.40;99.90;;;;;;5075290;28;20221;-70
2023/06/17 10:15:25;;;;;;;36.10;22.97;;;9.40;99.90;;;;;;5075455;28;20174;-70
2023/06/17 10:17:55;;;;;;;35.47;21.07;;;9.30;99.90;;;;;;5074991;28;20172;-72
2023/06/17 10:20:31;;;;;;;39.57;23.33;;;9.20;99.90;;;;;;5075024;28;20176;-73
2023/06/17 10:23:01;;;;;;;38.20;22.50;;;9.20;99.90;;;;;;5074907;28;20190;-69
2023/06/17 10:25:29;;;;;;;35.87;21.97;;;9.20;99.90;;;;;;5075329;28;20169;-73
2023/06/17 10:27:57;;;;;;;32.87;21.10;;;9.10;99.90;;;;;;5074727;28;20224;-72
2023/06/17 10:30:29;;;;;;;35.73;23.03;;;9.10;99.90;;;;;;5074912;28;20169;-73
2023/06/17 10:33:02;;;;;;;36.00;21.07;;;9.00;99.90;;;;;;5074677;28;20182;-71
2023/06/17 10:35:47;;;;;;;33.30;19.77;;;9.00;99.90;;;;;;5075004;28;20173;-70
2023/06/17 10:38:33;;;;;;;35.67;20.53;;;8.90;99.90;;;;;;5074984;28;20558;-72
2023/06/17 10:41:01;;;;;;;29.53;17.90;;;8.90;99.90;;;;;;5056711;28;20189;-69
2023/06/17 10:43:37;;;;;;;35.23;19.33;;;8.90;99.90;;;;;;5074525;28;20260;-69
2023/06/17 10:46:04;;;;;;;25.53;17.40;;;8.80;99.90;;;;;;5074765;28;20173;-70
2023/06/17 10:48:33;;;;;;;28.43;16.33;;;8.70;99.90;;;;;;5074599;28;20217;-68
2023/06/17 10:51:09;;;;;;;26.30;17.80;;;8.70;99.90;;;;;;5074529;28;20537;-71
2023/06/17 10:53:40;;;;;;;28.73;17.70;;;8.80;99.90;;;;;;5056385;28;20192;-71
2023/06/17 10:56:11;;;;;;;28.37;17.43;;;8.70;99.90;;;;;;5066751;28;20176;-72
2023/06/17 10:58:50;;;;;;;26.30;17.70;;;8.70;99.90;;;;;;5074521;28;20684;-70
2023/06/17 11:01:17;;;;;;;34.07;19.07;;;8.70;99.90;;;;;;5055505;28;20263;-70
2023/06/17 11:03:45;;;;;;;29.83;18.30;;;8.70;99.90;;;;;;5056253;28;20554;-70
2023/06/17 11:06:13;;;;;;;30.67;18.47;;;8.60;99.90;;;;;;5056045;28;20771;-70
2023/06/17 11:08:41;;;;;;;28.20;17.80;;;8.60;99.90;;;;;;5055971;28;20297;-70
2023/06/17 11:11:16;;;;;;;27.67;17.03;;;8.60;99.90;;;;;;5055578;28;20181;-70
2023/06/17 11:13:47;;;;;;;29.80;17.10;;;8.60;99.90;;;;;;5074206;28;20191;-71
2023/06/17 11:16:15;;;;;;;24.57;16.57;;;8.60;99.90;;;;;;5073905;28;20200;-70
2023/06/17 11:18:46;;;;;;;28.37;17.33;;;8.60;99.90;;;;;;5073543;28;20758;-70
2023/06/17 11:21:15;;;;;;;27.63;18.23;;;8.60;99.90;;;;;;5054745;28;20195;-70
2023/06/17 11:23:45;;;;;;;29.67;17.17;;;8.60;99.90;;;;;;5055856;28;20638;-71
2023/06/17 11:26:14;;;;;;;31.73;17.97;;;8.40;99.90;;;;;;5073885;28;20178;-70
2023/06/17 11:28:43;;;;;;;28.27;17.37;;;8.40;99.90;;;;;;5073059;28;20214;-70
2023/06/17 11:31:11;;;;;;;30.60;17.27;;;8.30;99.90;;;;;;5073309;28;20328;-71
2023/06/17 11:33:41;;;;;;;27.73;17.17;;;8.30;99.90;;;;;;5073209;28;20653;-70
2023/06/17 11:36:13;;;;;;;23.77;16.67;;;8.30;99.90;;;;;;5073228;28;20269;-70
2023/06/17 11:38:42;;;;;;;28.07;16.67;;;8.20;99.90;;;;;;5053529;28;20291;-72
2023/06/17 11:41:10;;;;;;;25.40;15.47;;;8.10;99.90;;;;;;5052326;28;20235;-72
2023/06/17 11:43:38;;;;;;;24.57;16.10;;;8.10;99.90;;;;;;5054038;28;20189;-71
2023/06/17 11:46:06;;;;;;;29.17;16.47;;;8.10;99.90;;;;;;5054885;28;20193;-70
2023/06/17 11:48:37;;;;;;;28.10;15.27;;;8.10;99.90;;;;;;5073017;28;20312;-70
2023/06/17 11:51:05;;;;;;;25.73;15.43;;;8.20;99.90;;;;;;5072703;28;20180;-70
2023/06/17 11:53:38;;;;;;;25.70;15.33;;;8.20;99.90;;;;;;5072165;28;20180;-70
2023/06/17 11:56:07;;;;;;;22.57;15.63;;;8.10;99.90;;;;;;5071523;28;20242;-69
2023/06/17 11:58:41;;;;;;;25.87;15.90;;;8.00;99.90;;;;;;5072640;28;20669;-69
2023/06/17 12:01:13;;;;;;;25.67;15.47;;;8.00;99.90;;;;;;5072305;28;20185;-70
2023/06/17 12:03:50;;;;;;;25.67;15.50;;;8.00;99.90;;;;;;5072591;28;20199;-69
2023/06/17 12:06:22;;;;;;;26.17;15.77;;;8.00;99.90;;;;;;5072565;28;20189;-72
2023/06/17 12:09:02;;;;;;;27.60;16.03;;;8.00;99.90;;;;;;5072601;28;20216;-72
2023/06/17 12:11:37;;;;;;;22.70;15.40;;;8.00;99.90;;;;;;5065617;28;20649;-69
2023/06/17 12:14:12;;;;;;;24.40;16.00;;;8.00;99.90;;;;;;5072520;28;20231;-72
2023/06/17 12:16:42;;;;;;;26.03;17.43;;;8.00;99.90;;;;;;5072653;28;20670;-72
2023/06/17 12:19:23;;;;;;;26.67;17.80;;;7.90;99.90;;;;;;5072519;28;20232;-72
2023/06/17 12:21:51;;;;;;;27.87;17.43;;;7.90;99.90;;;;;;5072436;28;20184;-73
2023/06/17 12:24:19;;;;;;;28.77;17.90;;;7.90;99.90;;;;;;5072323;28;20189;-73
2023/06/17 12:26:47;;;;;;;27.13;17.10;;;7.80;99.90;;;;;;5054152;28;20618;-73
2023/06/17 12:29:15;;;;;;;27.67;16.47;;;7.80;99.90;;;;;;5072389;28;20195;-74
2023/06/17 12:31:44;;;;;;;25.33;15.97;;;7.70;99.90;;;;;;5072840;28;20218;-73
2023/06/17 12:34:12;;;;;;;22.40;15.23;;;7.70;99.90;;;;;;5072609;28;20687;-72
2023/06/17 12:36:40;;;;;;;21.47;15.03;;;7.80;99.90;;;;;;5072728;28;20179;-74
2023/06/17 12:39:08;;;;;;;22.33;14.90;;;7.70;99.90;;;;;;5072227;28;20187;-73
2023/06/17 12:41:36;;;;;;;20.53;14.53;;;7.70;99.90;;;;;;5054025;28;20184;-74
2023/06/17 12:44:04;;;;;;;28.27;14.60;;;7.60;99.90;;;;;;5072002;28;20169;-72
2023/06/17 12:46:35;;;;;;;23.13;14.97;;;7.50;99.90;;;;;;5071623;28;20184;-72
2023/06/17 12:49:03;;;;;;;23.30;14.90;;;7.50;99.90;;;;;;5071853;28;20214;-73
2023/06/17 12:51:32;;;;;;;23.63;15.27;;;7.50;99.90;;;;;;5071185;28;20180;-73
2023/06/17 12:53:59;;;;;;;25.57;16.87;;;7.50;99.90;;;;;;5071361;28;20181;-73
2023/06/17 12:56:27;;;;;;;26.27;16.53;;;7.60;99.90;;;;;;5071355;28;20314;-73
2023/06/17 12:58:55;;;;;;;29.30;20.00;;;7.80;99.90;;;;;;5072013;28;20654;-72
2023/06/17 13:01:22;;;;;;;25.20;17.67;;;7.90;99.90;;;;;;5072063;28;20180;-74
2023/06/17 13:03:50;;;;;;;32.63;19.20;;;8.00;99.90;;;;;;5071499;28;20206;-73
2023/06/17 13:06:18;;;;;;;30.90;19.03;;;8.00;99.90;;;;;;5051776;28;20182;-73
2023/06/17 13:08:46;;;;;;;27.87;17.90;;;7.90;99.90;;;;;;5050811;28;20238;-72
2023/06/17 13:11:13;;;;;;;25.83;17.23;;;7.80;99.90;;;;;;5071613;28;20706;-73
2023/06/17 13:13:41;;;;;;;25.63;17.23;;;7.70;99.90;;;;;;5072014;28;20183;-73